Time;durP1;ratioP1;P1;durP2;ratioP2;P2;SDS_P1;SDS_P2;PMS_P1;PMS_P2;Temp;Humidity;BMP_temperature;BMP_pressure;BME280_temperature;BME280_humidity;BME280_pressure;Samples;Min_cycle;Max_cycle;Signal;HPM_P1;HPM_P2
2024/03/17 00:00:48;;;;;;;;;;;;;;;18.23;61.99;101289.13;7387687;19;1137;-36
2024/03/17 00:03:16;;;;;;;;;;;;;;;18.27;62.04;101279.06;7388705;19;1172;-36
2024/03/17 00:05:42;;;;;;;;;;;;;;;18.25;62.22;101295.22;7387721;19;1410;-36
2024/03/17 00:08:14;;;;;;;;;;;;;;;18.28;62.12;101302.16;7385120;19;1643;-36
2024/03/17 00:10:40;;;;;;;;;;;;;;;18.27;61.79;101285.25;7387313;19;1875;-37
2024/03/17 00:13:09;;;;;;;;;;;;;;;18.25;61.88;101295.22;7388017;19;1554;-36
2024/03/17 00:15:34;;;;;;;;;;;;;;;18.23;61.81;101283.78;7387920;19;1603;-36
2024/03/17 00:18:04;;;;;;;;;;;;;;;18.33;61.63;101280.41;7387808;19;1566;-36
2024/03/17 00:20:32;;;;;;;;;;;;;;;18.32;61.53;101286.72;7386945;19;1169;-36
2024/03/17 00:23:00;;;;;;;;;;;;;;;18.32;61.61;101300.09;7388337;19;1852;-36
2024/03/17 00:25:28;;;;;;;;;;;;;;;18.28;61.77;101295.00;7387747;19;1512;-36
2024/03/17 00:27:57;;;;;;;;;;;;;;;18.13;62.13;101290.81;7386876;19;1611;-36
2024/03/17 00:30:26;;;;;;;;;;;;;;;18.21;62.00;101320.53;7387851;19;1505;-36
2024/03/17 00:32:52;;;;;;;;;;;;;;;18.24;62.15;101284.63;7384458;19;1855;-36
2024/03/17 00:35:23;;;;;;;;;;;;;;;18.16;62.14;101287.88;7386321;19;1278;-36
2024/03/17 00:37:49;;;;;;;;;;;;;;;18.16;62.00;101279.84;7386907;19;1585;-36
2024/03/17 00:40:18;;;;;;;;;;;;;;;18.14;62.11;101272.91;7386256;19;1105;-35
2024/03/17 00:42:47;;;;;;;;;;;;;;;18.19;61.85;101268.09;7386281;19;1799;-36
2024/03/17 00:45:16;;;;;;;;;;;;;;;18.04;62.32;101272.78;7386150;19;1415;-36
2024/03/17 00:47:44;;;;;;;;;;;;;;;18.07;62.19;101272.56;7385851;19;997;-36
2024/03/17 00:50:11;;;;;;;;;;;;;;;18.10;62.11;101274.97;7386639;19;1555;-36
2024/03/17 00:52:39;;;;;;;;;;;;;;;18.01;62.56;101265.84;7385502;19;1853;-36
2024/03/17 00:55:06;;;;;;;;;;;;;;;18.13;61.81;101272.06;7386659;19;1643;-36
2024/03/17 00:57:34;;;;;;;;;;;;;;;18.19;61.63;101266.25;7387009;19;1507;-36
2024/03/17 01:00:03;;;;;;;;;;;;;;;18.22;61.61;101271.38;7372015;19;1110;-36
2024/03/17 01:02:31;;;;;;;;;;;;;;;18.17;61.80;101267.34;7386678;19;1152;-37
2024/03/17 01:04:57;;;;;;;;;;;;;;;18.18;61.76;101275.25;7385871;19;1419;-37
2024/03/17 01:07:26;;;;;;;;;;;;;;;18.12;61.84;101278.38;7385759;19;1538;-36
2024/03/17 01:09:52;;;;;;;;;;;;;;;18.09;62.03;101281.31;7385874;19;1513;-36
2024/03/17 01:12:21;;;;;;;;;;;;;;;18.18;61.76;101280.59;7384446;19;1858;-36
2024/03/17 01:14:46;;;;;;;;;;;;;;;18.07;61.88;101272.56;7385736;19;1204;-36
2024/03/17 01:17:18;;;;;;;;;;;;;;;17.98;62.00;101268.72;7386154;19;1155;-37
2024/03/17 01:19:45;;;;;;;;;;;;;;;18.00;62.06;101282.00;7383499;19;1469;-36
2024/03/17 01:22:13;;;;;;;;;;;;;;;17.86;62.23;101275.88;7385852;19;1599;-36
2024/03/17 01:24:45;;;;;;;;;;;;;;;17.99;62.15;101278.47;7385162;19;1588;-36
2024/03/17 01:27:16;;;;;;;;;;;;;;;18.13;62.06;101281.94;7384941;19;1457;-36
2024/03/17 01:29:41;;;;;;;;;;;;;;;18.28;61.98;101270.03;7385039;19;1619;-35
2024/03/17 01:32:10;;;;;;;;;;;;;;;18.50;61.37;101309.38;7383927;19;1842;-36
2024/03/17 01:34:39;;;;;;;;;;;;;;;18.61;60.95;101271.91;7385040;19;1579;-36
2024/03/17 01:37:07;;;;;;;;;;;;;;;18.69;60.61;101279.34;7386227;19;1030;-38
2024/03/17 01:39:33;;;;;;;;;;;;;;;18.72;60.58;101273.75;7385468;19;1972;-36
2024/03/17 01:42:02;;;;;;;;;;;;;;;18.80;60.44;101275.84;7385312;19;1662;-36
2024/03/17 01:44:29;;;;;;;;;;;;;;;18.82;60.16;101273.88;7382628;19;1481;-36
2024/03/17 01:46:58;;;;;;;;;;;;;;;18.83;60.09;101263.06;7384627;19;1610;-36
2024/03/17 01:49:26;;;;;;;;;;;;;;;18.85;60.10;101265.63;7384107;19;1180;-35
2024/03/17 01:51:57;;;;;;;;;;;;;;;18.80;60.17;101267.81;7384297;19;1863;-36
2024/03/17 01:54:23;;;;;;;;;;;;;;;18.86;60.06;101257.47;7383585;19;1222;-36
2024/03/17 01:56:52;;;;;;;;;;;;;;;18.86;60.09;101278.03;7384378;19;1508;-36
2024/03/17 01:59:17;;;;;;;;;;;;;;;18.84;60.25;101275.50;7369919;19;1488;-36
2024/03/17 02:01:46;;;;;;;;;;;;;;;19.03;59.71;101268.66;7383711;19;1544;-36
2024/03/17 02:04:17;;;;;;;;;;;;;;;19.46;58.72;101262.50;7383787;19;1215;-36
2024/03/17 02:06:43;;;;;;;;;;;;;;;19.82;57.54;101260.44;7383908;19;1606;-36
2024/03/17 02:09:14;;;;;;;;;;;;;;;19.41;58.81;101253.97;7390841;19;1077;-36
2024/03/17 02:11:40;;;;;;;;;;;;;;;19.46;58.81;101266.00;7391095;19;1859;-36
2024/03/17 02:14:09;;;;;;;;;;;;;;;19.59;58.31;101256.94;7391562;19;1497;-36
2024/03/17 02:16:35;;;;;;;;;;;;;;;19.65;58.35;101269.84;7390755;19;1561;-36
2024/03/17 02:19:03;;;;;;;;;;;;;;;19.89;57.79;101274.19;7391355;19;1544;-35
2024/03/17 02:21:30;;;;;;;;;;;;;;;20.21;56.85;101269.63;7390479;19;1204;-36
2024/03/17 02:24:01;;;;;;;;;;;;;;;20.01;57.33;101257.03;7391093;19;1574;-36
2024/03/17 02:26:31;;;;;;;;;;;;;;;20.21;56.90;101274.13;7391787;19;1120;-36
2024/03/17 02:28:56;;;;;;;;;;;;;;;20.34;56.71;101296.28;7391191;19;1121;-36
2024/03/17 02:31:25;;;;;;;;;;;;;;;20.08;57.18;101271.66;7390265;19;1855;-36
2024/03/17 02:33:51;;;;;;;;;;;;;;;20.26;56.63;101275.44;7387042;19;1497;-36
2024/03/17 02:36:20;;;;;;;;;;;;;;;20.36;56.52;101266.59;7390519;19;1469;-36
2024/03/17 02:41:31;;;;;;;;;;;;;;;20.29;56.77;101255.53;7390914;19;1524;-35
2024/03/17 02:44:00;;;;;;;;;;;;;;;20.45;56.33;101272.03;7390815;19;1498;-36
2024/03/17 02:46:28;;;;;;;;;;;;;;;20.25;56.61;101267.50;7390311;19;1065;-36
2024/03/17 02:48:57;;;;;;;;;;;;;;;20.19;56.79;101266.22;7390364;19;1433;-36
2024/03/17 02:51:25;;;;;;;;;;;;;;;20.09;56.98;101316.28;7390364;19;1856;-36
2024/03/17 02:53:54;;;;;;;;;;;;;;;20.17;56.93;101280.75;7390139;19;1860;-36
2024/03/17 02:56:22;;;;;;;;;;;;;;;20.15;56.99;101270.13;7390101;19;1557;-36
2024/03/17 02:58:54;;;;;;;;;;;;;;;20.24;56.92;101274.72;7387132;19;1826;-36
2024/03/17 03:01:22;;;;;;;;;;;;;;;20.62;55.95;101284.03;7374880;19;1494;-36
2024/03/17 03:03:51;;;;;;;;;;;;;;;20.42;56.35;101271.44;7389474;19;1433;-35
2024/03/17 03:06:19;;;;;;;;;;;;;;;20.26;56.67;101278.13;7390377;19;1199;-36
2024/03/17 03:08:50;;;;;;;;;;;;;;;20.27;56.76;101287.91;7389746;19;1493;-36
2024/03/17 03:11:19;;;;;;;;;;;;;;;20.22;56.90;101267.78;7389711;19;1893;-36
2024/03/17 03:13:47;;;;;;;;;;;;;;;20.27;56.60;101279.84;7386829;19;1829;-36
2024/03/17 03:16:19;;;;;;;;;;;;;;;20.30;56.74;101289.47;7389064;19;1622;-36
2024/03/17 03:18:47;;;;;;;;;;;;;;;20.34;56.61;101273.94;7389206;19;1504;-36
2024/03/17 03:21:16;;;;;;;;;;;;;;;20.36;56.52;101288.09;7386304;19;1852;-36
2024/03/17 03:23:44;;;;;;;;;;;;;;;20.25;56.85;101287.19;7389435;19;1057;-36
2024/03/17 03:26:13;;;;;;;;;;;;;;;20.24;56.75;101281.94;7388701;19;1826;-36
2024/03/17 03:28:41;;;;;;;;;;;;;;;20.32;56.62;101279.44;7388582;19;1504;-36
2024/03/17 03:31:13;;;;;;;;;;;;;;;20.29;56.70;101268.94;7388227;19;1532;-36
2024/03/17 03:33:44;;;;;;;;;;;;;;;20.30;56.74;101286.78;7386932;19;1838;-35
2024/03/17 03:36:13;;;;;;;;;;;;;;;20.37;56.34;101284.41;7389134;19;1445;-36
2024/03/17 03:38:42;;;;;;;;;;;;;;;20.42;56.31;101274.97;7388599;19;1122;-36
2024/03/17 03:41:11;;;;;;;;;;;;;;;20.46;56.43;101283.63;7388077;19;1411;-36
2024/03/17 03:43:40;;;;;;;;;;;;;;;20.48;56.21;101280.81;7388593;19;1471;-36
2024/03/17 03:46:09;;;;;;;;;;;;;;;20.48;56.28;101287.03;7388428;19;1832;-36
2024/03/17 03:48:38;;;;;;;;;;;;;;;20.50;56.25;101293.13;7388862;19;1470;-35
2024/03/17 03:51:10;;;;;;;;;;;;;;;20.44;56.42;101291.81;7388469;19;1596;-36
2024/03/17 03:53:39;;;;;;;;;;;;;;;20.19;56.66;101293.09;7386791;19;1817;-36
2024/03/17 03:56:10;;;;;;;;;;;;;;;19.73;57.92;101280.81;7388162;19;1528;-36
2024/03/17 03:58:40;;;;;;;;;;;;;;;19.50;58.23;101281.84;7388860;19;1516;-36
2024/03/17 04:01:08;;;;;;;;;;;;;;;19.11;59.24;101295.69;7373065;19;1549;-36
2024/03/17 04:03:37;;;;;;;;;;;;;;;18.73;58.72;101296.03;7387826;19;1632;-36
2024/03/17 04:06:10;;;;;;;;;;;;;;;18.72;59.73;101291.63;7388111;19;1623;-36
2024/03/17 04:08:39;;;;;;;;;;;;;;;18.99;59.85;101302.88;7388589;19;1497;-40
2024/03/17 04:11:08;;;;;;;;;;;;;;;19.22;59.22;101284.97;7388162;19;1596;-36
2024/03/17 04:13:37;;;;;;;;;;;;;;;19.12;59.33;101296.53;7386657;19;1852;-36
2024/03/17 04:16:07;;;;;;;;;;;;;;;19.11;59.55;101284.13;7387682;19;1055;-36
2024/03/17 04:18:36;;;;;;;;;;;;;;;19.20;59.37;101307.50;7388012;19;1539;-36
2024/03/17 04:21:06;;;;;;;;;;;;;;;19.27;59.15;101298.84;7386937;19;1500;-36
2024/03/17 04:23:38;;;;;;;;;;;;;;;19.47;58.62;101301.72;7389118;19;1096;-36
2024/03/17 04:26:07;;;;;;;;;;;;;;;19.47;58.41;101299.03;7387017;19;1464;-36
2024/03/17 04:28:35;;;;;;;;;;;;;;;19.54;58.47;101313.66;7386544;19;1559;-36
2024/03/17 04:31:08;;;;;;;;;;;;;;;19.48;58.33;101306.97;7384814;19;1244;-35
2024/03/17 04:33:37;;;;;;;;;;;;;;;19.52;58.21;101304.03;7385982;19;1866;-36
2024/03/17 04:36:06;;;;;;;;;;;;;;;19.50;58.21;101311.34;7385588;19;1603;-36
2024/03/17 04:38:34;;;;;;;;;;;;;;;19.61;58.06;101292.53;7386977;19;1217;-36
2024/03/17 04:41:09;;;;;;;;;;;;;;;19.55;58.13;101303.78;7386854;19;1457;-36
2024/03/17 04:43:38;;;;;;;;;;;;;;;19.50;58.22;101314.03;7387306;19;1513;-36
2024/03/17 04:46:10;;;;;;;;;;;;;;;19.48;58.09;101303.44;7386820;19;1219;-36
2024/03/17 04:48:40;;;;;;;;;;;;;;;19.50;58.18;101314.91;7387397;19;1437;-36
2024/03/17 04:51:08;;;;;;;;;;;;;;;19.57;58.06;101315.25;7386791;19;1102;-36
2024/03/17 04:53:34;;;;;;;;;;;;;;;20.19;56.63;101325.31;7385034;19;1844;-36
2024/03/17 04:56:06;;;;;;;;;;;;;;;21.32;53.74;101305.66;7386017;19;1563;-36
2024/03/17 04:58:35;;;;;;;;;;;;;;;22.02;52.11;101316.38;7386162;19;1212;-36
2024/03/17 05:01:07;;;;;;;;;;;;;;;21.57;52.59;101315.09;7372066;19;1238;-36
2024/03/17 05:03:36;;;;;;;;;;;;;;;20.97;54.16;101325.78;7386050;19;1572;-36
2024/03/17 05:06:05;;;;;;;;;;;;;;;20.34;55.68;101324.97;7385201;19;1551;-36
2024/03/17 05:08:31;;;;;;;;;;;;;;;19.93;56.85;101324.78;7386242;19;1286;-36
2024/03/17 05:11:00;;;;;;;;;;;;;;;19.70;57.31;101340.09;7386373;19;1528;-36
2024/03/17 05:13:31;;;;;;;;;;;;;;;19.66;57.55;101327.91;7384478;19;2264;-36
2024/03/17 05:15:57;;;;;;;;;;;;;;;19.65;57.74;101328.88;7386349;19;1031;-36
2024/03/17 05:18:26;;;;;;;;;;;;;;;19.59;57.75;101326.69;7384471;19;1168;-35
2024/03/17 05:21:02;;;;;;;;;;;;;;;19.58;57.97;101316.97;7385373;19;1592;-36
2024/03/17 05:23:31;;;;;;;;;;;;;;;19.56;57.90;101326.97;7383970;19;1255;-36
2024/03/17 05:26:00;;;;;;;;;;;;;;;19.60;57.97;101331.09;7385397;19;1635;-36
2024/03/17 05:28:30;;;;;;;;;;;;;;;19.61;58.06;101335.47;7384976;19;1407;-36
2024/03/17 05:31:01;;;;;;;;;;;;;;;19.63;58.00;101341.56;7384964;19;1564;-36
2024/03/17 05:33:29;;;;;;;;;;;;;;;19.59;57.96;101338.28;7383201;19;1861;-36
2024/03/17 05:35:58;;;;;;;;;;;;;;;19.65;57.83;101336.94;7384929;19;1548;-36
2024/03/17 05:38:28;;;;;;;;;;;;;;;19.66;57.80;101335.97;7385345;19;1636;-36
2024/03/17 05:40:59;;;;;;;;;;;;;;;19.71;57.73;101347.19;7385192;19;1564;-36
2024/03/17 05:43:28;;;;;;;;;;;;;;;19.69;57.90;101338.38;7388336;19;1612;-36
2024/03/17 05:45:57;;;;;;;;;;;;;;;19.70;57.73;101340.09;7393215;19;1636;-36
2024/03/17 05:48:28;;;;;;;;;;;;;;;19.80;57.55;101350.97;7392612;19;1569;-36
2024/03/17 05:50:57;;;;;;;;;;;;;;;19.82;57.42;101340.94;7393206;19;1160;-37
2024/03/17 05:53:26;;;;;;;;;;;;;;;19.88;57.39;101350.31;7390534;19;1853;-36
2024/03/17 05:55:55;;;;;;;;;;;;;;;19.88;57.43;101342.28;7392234;19;1575;-37
2024/03/17 05:58:23;;;;;;;;;;;;;;;19.91;57.44;101345.53;7393205;19;1086;-36
2024/03/17 06:00:52;;;;;;;;;;;;;;;19.93;57.20;101343.56;7377669;19;1421;-36
2024/03/17 06:03:21;;;;;;;;;;;;;;;19.97;57.23;101347.69;7391412;19;1267;-36
2024/03/17 06:05:53;;;;;;;;;;;;;;;20.02;57.28;101339.28;7391664;19;1587;-36
2024/03/17 06:08:22;;;;;;;;;;;;;;;19.97;57.30;101336.13;7391412;19;1285;-37
2024/03/17 06:10:51;;;;;;;;;;;;;;;20.08;57.05;101344.16;7391787;19;1508;-36
2024/03/17 06:13:19;;;;;;;;;;;;;;;20.11;57.09;101354.59;7390563;19;1842;-36
2024/03/17 06:15:48;;;;;;;;;;;;;;;20.12;57.11;101355.47;7391599;19;1483;-36
2024/03/17 06:18:17;;;;;;;;;;;;;;;20.12;57.16;101350.97;7391471;19;1556;-36
2024/03/17 06:20:46;;;;;;;;;;;;;;;20.14;57.25;101359.72;7392001;19;1457;-37
2024/03/17 06:23:18;;;;;;;;;;;;;;;20.19;57.03;101357.53;7392298;19;1027;-37
2024/03/17 06:25:47;;;;;;;;;;;;;;;20.24;57.06;101349.91;7391791;19;1564;-43
2024/03/17 06:28:16;;;;;;;;;;;;;;;20.23;57.16;101356.28;7390471;19;2071;-51
2024/03/17 06:30:46;;;;;;;;;;;;;;;20.23;57.25;101375.09;7391248;19;1513;-37
2024/03/17 06:33:16;;;;;;;;;;;;;;;20.21;57.04;101369.00;7389748;19;1841;-36
2024/03/17 06:35:44;;;;;;;;;;;;;;;20.23;57.03;101361.66;7391995;19;1615;-36
2024/03/17 06:38:13;;;;;;;;;;;;;;;20.28;57.06;101366.63;7393205;19;1583;-36
2024/03/17 06:40:44;;;;;;;;;;;;;;;20.29;57.18;101365.63;7393840;19;1596;-36
2024/03/17 06:43:13;;;;;;;;;;;;;;;20.28;57.12;101366.63;7392741;19;1638;-37
2024/03/17 06:45:41;;;;;;;;;;;;;;;20.31;57.26;101360.97;7391772;19;1218;-43
2024/03/17 06:48:10;;;;;;;;;;;;;;;20.29;57.25;101367.47;7391105;19;1515;-37
2024/03/17 06:50:40;;;;;;;;;;;;;;;20.31;57.19;101368.19;7392528;19;1133;-36
2024/03/17 06:53:09;;;;;;;;;;;;;;;20.33;57.35;101369.75;7389552;19;1848;-37
2024/03/17 06:55:38;;;;;;;;;;;;;;;20.33;57.33;101369.75;7391640;19;1537;-36
2024/03/17 06:58:09;;;;;;;;;;;;;;;20.34;57.27;101366.13;7390937;19;1357;-39
2024/03/17 07:00:37;;;;;;;;;;;;;;;20.22;57.68;101370.69;7375517;19;1557;-36
2024/03/17 07:03:06;;;;;;;;;;;;;;;19.95;58.34;101381.03;7390356;19;1561;-36
2024/03/17 07:05:35;;;;;;;;;;;;;;;19.66;58.98;101377.06;7391042;19;1544;-36
2024/03/17 07:08:04;;;;;;;;;;;;;;;19.54;59.38;101412.09;7391523;19;1074;-36
2024/03/17 07:10:34;;;;;;;;;;;;;;;19.54;59.56;101377.22;7391171;19;1016;-36
2024/03/17 07:13:03;;;;;;;;;;;;;;;19.54;59.57;101356.59;7389329;19;1870;-37
2024/03/17 07:15:34;;;;;;;;;;;;;;;20.15;58.00;101371.31;7390057;19;1565;-35
2024/03/17 07:18:03;;;;;;;;;;;;;;;20.20;57.75;101364.59;7389929;19;1176;-36
2024/03/17 07:20:35;;;;;;;;;;;;;;;20.28;57.82;101366.63;7390064;19;1112;-36
2024/03/17 07:23:03;;;;;;;;;;;;;;;20.34;57.54;101376.84;7389598;19;1825;-36
2024/03/17 07:25:32;;;;;;;;;;;;;;;20.35;57.61;101351.72;7389793;19;1584;-36
2024/03/17 07:28:00;;;;;;;;;;;;;;;20.38;57.42;101358.66;7389548;19;1618;-36
2024/03/17 07:30:29;;;;;;;;;;;;;;;20.41;57.47;101369.13;7389500;19;1518;-35
2024/03/17 07:33:00;;;;;;;;;;;;;;;20.40;57.30;101370.13;7388271;19;1857;-36
2024/03/17 07:35:29;;;;;;;;;;;;;;;20.40;57.43;101357.53;7389048;19;1589;-36
2024/03/17 07:37:57;;;;;;;;;;;;;;;20.39;57.58;101352.28;7388671;19;1223;-36
2024/03/17 07:40:25;;;;;;;;;;;;;;;20.44;57.34;101371.56;7388711;19;1498;-36
2024/03/17 07:42:54;;;;;;;;;;;;;;;20.45;57.65;101357.13;7389032;19;1527;-36
2024/03/17 07:45:22;;;;;;;;;;;;;;;20.43;57.51;101349.22;7388591;19;1208;-41
2024/03/17 07:47:53;;;;;;;;;;;;;;;20.45;57.46;101360.69;7389138;19;1067;-39
2024/03/17 07:50:24;;;;;;;;;;;;;;;20.50;57.36;101354.06;7388753;19;1850;-49
2024/03/17 07:52:53;;;;;;;;;;;;;;;20.52;57.48;101344.03;7388825;19;1414;-38
2024/03/17 07:55:21;;;;;;;;;;;;;;;20.48;57.72;101350.66;7388559;19;1406;-38
2024/03/17 07:57:50;;;;;;;;;;;;;;;20.53;57.35;101340.34;7388140;19;1610;-42
2024/03/17 08:00:20;;;;;;;;;;;;;;;20.52;57.54;101347.56;7382852;19;1443;-37
2024/03/17 08:02:48;;;;;;;;;;;;;;;20.56;57.38;101348.16;7381147;19;2578;-36
2024/03/17 08:05:17;;;;;;;;;;;;;;;20.60;57.30;101363.91;7385120;19;1548;-36
2024/03/17 08:07:48;;;;;;;;;;;;;;;20.55;57.57;101352.69;7387661;19;1537;-37
2024/03/17 08:10:17;;;;;;;;;;;;;;;20.52;57.64;101341.34;7387805;19;1133;-36
2024/03/17 08:12:46;;;;;;;;;;;;;;;20.56;57.64;101350.84;7388108;19;1549;-36
2024/03/17 08:15:14;;;;;;;;;;;;;;;20.53;57.61;101338.53;7386757;19;1856;-37
2024/03/17 08:17:43;;;;;;;;;;;;;;;20.58;57.34;101333.59;7385132;19;1570;-36
2024/03/17 08:20:13;;;;;;;;;;;;;;;20.56;57.84;101349.00;7385360;19;1514;-36
2024/03/17 08:22:41;;;;;;;;;;;;;;;20.56;57.51;101335.56;7387935;19;1226;-37
2024/03/17 08:25:13;;;;;;;;;;;;;;;20.57;57.45;101334.59;7387413;19;1577;-36
2024/03/17 08:27:41;;;;;;;;;;;;;;;20.59;57.65;101326.44;7387434;19;1606;-37
2024/03/17 08:30:11;;;;;;;;;;;;;;;20.60;57.58;101328.97;7386742;19;1488;-37
2024/03/17 08:32:41;;;;;;;;;;;;;;;20.60;57.60;101320.94;7386812;19;1532;-36
2024/03/17 08:35:12;;;;;;;;;;;;;;;20.64;57.49;101332.25;7386650;19;1878;-37
2024/03/17 08:37:41;;;;;;;;;;;;;;;20.62;57.51;101316.28;7387625;19;1622;-36
2024/03/17 08:40:10;;;;;;;;;;;;;;;20.62;57.36;101316.28;7386465;19;1454;-36
2024/03/17 08:42:41;;;;;;;;;;;;;;;20.63;57.49;101317.13;7386850;19;1550;-36
2024/03/17 08:45:11;;;;;;;;;;;;;;;20.62;57.50;101318.13;7386981;19;1112;-36
2024/03/17 08:47:39;;;;;;;;;;;;;;;20.61;57.75;101319.97;7386100;19;1552;-36
2024/03/17 08:50:08;;;;;;;;;;;;;;;20.62;57.55;101318.97;7384604;19;1509;-36
2024/03/17 08:52:37;;;;;;;;;;;;;;;20.64;57.54;101306.22;7386983;19;1062;-36
2024/03/17 08:55:09;;;;;;;;;;;;;;;20.65;57.53;101310.63;7383870;19;1834;-36
2024/03/17 08:57:38;;;;;;;;;;;;;;;20.64;57.57;101302.72;7385745;19;1564;-38
2024/03/17 09:00:11;;;;;;;;;;;;;;;20.69;57.71;101310.34;7386412;19;1434;-36
2024/03/17 09:02:41;;;;;;;;;;;;;;;20.61;57.80;101314.59;7368754;19;1791;-36
2024/03/17 09:05:10;;;;;;;;;;;;;;;20.65;57.53;101309.78;7386447;19;1082;-37
2024/03/17 09:07:38;;;;;;;;;;;;;;;20.69;57.54;101299.59;7385894;19;1792;-39
2024/03/17 09:10:08;;;;;;;;;;;;;;;20.69;57.53;101302.28;7385788;19;1523;-36
2024/03/17 09:12:37;;;;;;;;;;;;;;;20.71;57.73;101294.94;7386385;19;1192;-36
2024/03/17 09:15:05;;;;;;;;;;;;;;;20.65;57.68;101293.66;7384001;19;1842;-37
2024/03/17 09:17:36;;;;;;;;;;;;;;;20.65;57.69;101305.28;7385958;19;1584;-36
2024/03/17 09:20:05;;;;;;;;;;;;;;;20.75;57.56;101304.44;7385664;19;1445;-36
2024/03/17 09:22:34;;;;;;;;;;;;;;;20.68;57.70;101288.03;7386563;19;1532;-37
2024/03/17 09:25:02;;;;;;;;;;;;;;;20.74;57.41;101287.47;7385715;19;1485;-37
2024/03/17 09:27:31;;;;;;;;;;;;;;;20.69;57.63;101284.34;7386674;19;1688;-37
2024/03/17 09:29:59;;;;;;;;;;;;;;;20.71;57.83;101268.06;7386602;19;1413;-37
2024/03/17 09:32:28;;;;;;;;;;;;;;;20.69;57.74;101278.97;7386231;19;982;-36
2024/03/17 09:34:59;;;;;;;;;;;;;;;20.73;57.65;101285.78;7382943;19;1842;-36
2024/03/17 09:37:27;;;;;;;;;;;;;;;20.74;57.69;101283.94;7385498;19;1547;-36
2024/03/17 09:39:57;;;;;;;;;;;;;;;20.67;57.80;101272.88;7384633;19;1492;-36
2024/03/17 09:42:26;;;;;;;;;;;;;;;20.68;57.74;101265.69;7385699;19;1559;-36
2024/03/17 09:44:56;;;;;;;;;;;;;;;20.70;57.71;101269.06;7384219;19;1933;-36
2024/03/17 09:47:26;;;;;;;;;;;;;;;20.68;57.85;101262.97;7384333;19;1556;-36
2024/03/17 09:49:54;;;;;;;;;;;;;;;20.71;57.84;101257.31;7384523;19;1600;-36
2024/03/17 09:52:26;;;;;;;;;;;;;;;20.70;57.70;101263.69;7384999;19;1172;-37
2024/03/17 09:55:00;;;;;;;;;;;;;;;20.73;57.69;101263.41;7384111;19;1869;-37
2024/03/17 09:57:30;;;;;;;;;;;;;;;20.70;57.79;101247.56;7384486;19;1592;-36
2024/03/17 09:59:58;;;;;;;;;;;;;;;20.69;57.79;101252.09;7384068;19;1556;-37
2024/03/17 10:02:29;;;;;;;;;;;;;;;20.68;58.01;101260.31;7369163;19;1314;-36
2024/03/17 10:04:57;;;;;;;;;;;;;;;20.66;58.03;101247.84;7384014;19;1369;-37
2024/03/17 10:07:40;;;;;;;;;;;;;;;20.75;57.84;101264.13;7384398;19;1429;-36
2024/03/17 10:10:18;;;;;;;;;;;;;;;20.71;58.00;101250.13;7383579;19;1203;-36
2024/03/17 10:12:46;;;;;;;;;;;;;;;20.70;57.91;101243.03;7384681;19;1144;-36
2024/03/17 10:15:15;;;;;;;;;;;;;;;20.74;57.72;101239.09;7382154;19;1818;-37
2024/03/17 10:17:43;;;;;;;;;;;;;;;20.68;58.15;101241.50;7385112;19;1018;-36
2024/03/17 10:20:16;;;;;;;;;;;;;;;20.69;58.09;101244.03;7383776;19;1567;-36
2024/03/17 10:23:06;;;;;;;;;;;;;;;20.70;57.88;101244.88;7383635;19;1586;-36
2024/03/17 10:25:41;;;;;;;;;;;;;;;20.67;57.92;101237.94;7382255;19;2319;-36
2024/03/17 10:28:13;;;;;;;;;;;;;;;20.86;57.50;101250.59;7383110;19;1542;-37
2024/03/17 10:30:42;;;;;;;;;;;;;;;21.22;56.47;101243.75;7391062;19;1478;-36
2024/03/17 10:33:25;;;;;;;;;;;;;;;21.28;56.30;101236.97;7389820;19;1512;-36
2024/03/17 10:35:53;;;;;;;;;;;;;;;21.43;56.08;101245.53;7388918;19;1864;-36
2024/03/17 10:38:22;;;;;;;;;;;;;;;21.43;56.24;101227.56;7391171;19;1573;-36
2024/03/17 10:40:53;;;;;;;;;;;;;;;21.51;55.80;101242.16;7390754;19;1286;-36
2024/03/17 10:43:24;;;;;;;;;;;;;;;21.48;56.09;101247.81;7391075;19;1493;-36
2024/03/17 10:45:54;;;;;;;;;;;;;;;21.52;55.87;101257.28;7390968;19;1422;-37
2024/03/17 10:48:23;;;;;;;;;;;;;;;21.56;55.95;101237.19;7391289;19;1010;-37
2024/03/17 10:50:52;;;;;;;;;;;;;;;21.56;55.92;101223.72;7390649;19;1551;-37
2024/03/17 10:53:26;;;;;;;;;;;;;;;21.62;55.65;101223.16;7391660;19;1160;-37
2024/03/17 10:56:03;;;;;;;;;;;;;;;21.57;55.67;101226.28;7388785;19;1897;-36
2024/03/17 10:58:35;;;;;;;;;;;;;;;21.60;55.80;101219.75;7390322;19;1532;-36
2024/03/17 11:01:05;;;;;;;;;;;;;;;21.44;56.37;101221.16;7390359;19;1551;-36
2024/03/17 11:03:35;;;;;;;;;;;;;;;21.27;56.77;101219.16;7375031;19;1501;-36
2024/03/17 11:06:05;;;;;;;;;;;;;;;21.16;57.10;101211.19;7389865;19;1502;-36
2024/03/17 11:08:34;;;;;;;;;;;;;;;21.07;57.30;101215.59;7388913;19;1218;-37
2024/03/17 11:11:05;;;;;;;;;;;;;;;21.05;57.56;101207.66;7389265;19;1167;-37
2024/03/17 11:13:36;;;;;;;;;;;;;;;20.97;57.46;101202.13;7389652;19;1536;-36
2024/03/17 11:16:05;;;;;;;;;;;;;;;20.99;57.64;101200.13;7387047;19;1834;-36
2024/03/17 11:18:35;;;;;;;;;;;;;;;20.99;57.77;101200.13;7389665;19;1507;-36
2024/03/17 11:21:08;;;;;;;;;;;;;;;20.90;57.68;101197.44;7389090;19;1567;-36
2024/03/17 11:23:37;;;;;;;;;;;;;;;20.92;57.77;101195.44;7390340;19;980;-37
2024/03/17 11:26:08;;;;;;;;;;;;;;;20.92;57.87;101203.50;7388875;19;1801;-36
2024/03/17 11:28:50;;;;;;;;;;;;;;;20.88;57.94;101192.19;7388933;19;1616;-37
2024/03/17 11:31:33;;;;;;;;;;;;;;;20.88;58.05;101189.50;7388992;19;1492;-36
2024/03/17 11:34:02;;;;;;;;;;;;;;;20.88;57.92;101192.19;7388625;19;1532;-36
2024/03/17 11:36:41;;;;;;;;;;;;;;;20.90;57.75;101182.13;7383917;19;1620;-36
2024/03/17 11:39:14;;;;;;;;;;;;;;;20.94;57.79;101167.44;7388350;19;1575;-36
2024/03/17 11:41:46;;;;;;;;;;;;;;;20.90;57.91;101179.44;7386072;19;1620;-36
2024/03/17 11:44:26;;;;;;;;;;;;;;;20.85;57.89;101163.75;7388164;19;1488;-36
2024/03/17 11:46:56;;;;;;;;;;;;;;;20.82;58.03;101160.47;7388405;19;1499;-36
2024/03/17 11:49:23;;;;;;;;;;;;;;;20.87;58.12;101169.00;7388618;19;1550;-36
2024/03/17 11:51:51;;;;;;;;;;;;;;;20.84;58.02;101155.81;7388569;19;1624;-36
2024/03/17 11:54:18;;;;;;;;;;;;;;;20.85;58.10;101198.69;7387645;19;1873;-36
2024/03/17 11:56:50;;;;;;;;;;;;;;;20.84;58.00;101145.06;7387429;19;1415;-36
2024/03/17 11:59:17;;;;;;;;;;;;;;;20.83;58.16;101168.41;7387760;19;1626;-36
2024/03/17 12:01:47;;;;;;;;;;;;;;;20.85;58.03;101154.84;7378192;19;1002;-36
2024/03/17 12:04:13;;;;;;;;;;;;;;;20.88;58.01;101151.00;7386354;19;1825;-36
2024/03/17 12:06:42;;;;;;;;;;;;;;;20.83;58.10;101140.66;7387384;19;1410;-36
2024/03/17 12:09:09;;;;;;;;;;;;;;;20.88;57.98;101154.53;7387607;19;1609;-36
2024/03/17 12:11:38;;;;;;;;;;;;;;;20.85;58.02;101144.09;7388033;19;1168;-36
2024/03/17 12:14:15;;;;;;;;;;;;;;;20.86;58.23;101140.38;7387508;19;1630;-36
2024/03/17 12:16:51;;;;;;;;;;;;;;;20.89;58.03;101144.63;7386706;19;1497;-36
2024/03/17 12:19:18;;;;;;;;;;;;;;;20.85;58.34;101134.19;7386959;19;1558;-36
2024/03/17 12:21:47;;;;;;;;;;;;;;;20.85;58.18;101133.34;7387332;19;1569;-36
2024/03/17 12:24:17;;;;;;;;;;;;;;;20.85;58.24;101144.09;7387049;19;1627;-37
2024/03/17 12:26:47;;;;;;;;;;;;;;;20.89;57.97;101140.13;7387146;19;1571;-37
2024/03/17 12:29:27;;;;;;;;;;;;;;;20.89;58.22;101145.50;7386613;19;1520;-36
2024/03/17 12:31:56;;;;;;;;;;;;;;;20.86;58.20;101140.38;7386951;19;2012;-36
2024/03/17 12:34:23;;;;;;;;;;;;;;;20.79;58.40;101123.09;7387746;19;1849;-36
2024/03/17 12:36:51;;;;;;;;;;;;;;;20.86;58.33;101129.63;7387789;19;1372;-36
2024/03/17 12:39:18;;;;;;;;;;;;;;;20.84;58.31;101126.25;7386511;19;1572;-37
2024/03/17 12:41:47;;;;;;;;;;;;;;;20.82;58.42;101112.94;7386473;19;1527;-36
2024/03/17 12:44:25;;;;;;;;;;;;;;;20.83;58.38;101127.22;7386142;19;1501;-36
2024/03/17 12:46:57;;;;;;;;;;;;;;;20.99;57.85;101116.78;7386338;19;1262;-36
2024/03/17 12:49:25;;;;;;;;;;;;;;;21.26;57.06;101105.31;7386470;19;1495;-36
2024/03/17 12:51:53;;;;;;;;;;;;;;;21.43;56.76;101114.56;7386278;19;1111;-37
2024/03/17 12:54:21;;;;;;;;;;;;;;;21.44;56.57;101126.16;7385950;19;1159;-36
2024/03/17 13:02:23;;;;;;;;;;;;;;;21.35;57.00;101143.13;7377935;19;1203;-37
2024/03/17 13:05:07;;;;;;;;;;;;;;;21.27;57.48;101114.25;7383940;19;1670;-40
2024/03/17 13:07:35;;;;;;;;;;;;;;;21.12;57.80;101103.06;7385469;19;1773;-38